13h49 EST


 

Suivi/Infos de l'aéroport


-ou-


 

Suivi des vols en temps réelNetjets Aviation #929 ✈ 18-02-2014 ✈ KICT - KOMA

EJA929 / EJA929P
Netjets Aviation "Execjet" (tous les vols) · Columbus, OH
Wichita ( – info)
Wichita, KS
Wichita ( – info)
Wichita, KS
13h34 CST
13h57 CST
Prévu: 13h00 CST
Prévu: 13h36 CST
Durée: 23 minutes
mardi, 18 février 2014
Statut A atterri il y a 39 semaines. (journal de vol & graphique)
Avion Cessna Citation X (biréacteur) (C750/L – photos)
Vitesse Plan de vol: 483 kts (graphique)
Altitude Plan de vol: 23.000 Pieds (graphique)
Distance En ligne droite 0 km    Parcourue 164 km
Route PEABO GOSSL J21 OVR (Décoder)
JOURNAL DE L'ACTIVITE
Vous voulez une recherche complète sur l'historique de EJA929 depuis 1998? Achetez maintenant. Recevez-le dans l'heure.
Date Avion Provenance Destination Départ Arrivée Durée
23-11-2014 C750/LInt'l de Miami ()Bob Hope () 13h11 EST 15h32 PST En vol
21-11-2014 C750/LCancun Int'l ()Int'l de Miami () 18h12 CST 18h25 EST (?) 0:37
21-11-2014 C750/LCancun Int'l ()Teterboro () 11h37 CST 15h29 EST 2:52
21-11-2014 C750/LPalm Beach Intl ()Cancun Int'l () 09h33 EST 09h57 CST (?) 1:24
20-11-2014 C750/LLaurence G Hanscom Fld ()Palm Beach Intl () 16h32 EST 19h15 EST 2:43
20-11-2014 C750/LTeterboro ()Laurence G Hanscom Fld () 15h16 EST 15h57 EST 0:41
20-11-2014 C750/LProvidenciales Int'l ()Teterboro () 11h19 AST 13h18 EST 2:59
19-11-2014 C750/LInt'l Casa de Campo ()Providenciales Int'l () 17h10 AST 18h01 AST 0:51
19-11-2014 C750/LDekalb-Peachtree ()Int'l Casa de Campo () 12h03 EST 15h46 AST 2:43
19-11-2014 C750/LNashville Intl ()Dekalb-Peachtree () 08h53 CST 10h31 EST 0:38
18-11-2014 C750/LVan Nuys ()Nashville Intl () 13h53 PST 19h03 CST 3:10
18-11-2014 C750/LSanta Monica Muni ()Van Nuys () 09h27 PST 09h36 PST 0:09
17-11-2014 C750/LCasper/Natrona County Intl ()Santa Monica Muni () 17h33 MST 18h23 PST 1:50
17-11-2014 C750/LWill Rogers World ()Casper/Natrona County Intl () 16h04 CST 16h42 MST 1:38
17-11-2014 C750/LFort Dodge Rgnl ()Will Rogers World () 13h23 CST 14h33 CST 1:10
17-11-2014 C750/LHenderson Executive ()Fort Dodge Rgnl () 07h53 PST 12h09 CST 2:16
16-11-2014 C750/LStockton Metropolitan ()Henderson Executive () 15h41 PST 16h37 PST 0:56
16-11-2014 C750/LInt'l de San Diego ()Stockton Metropolitan () 13h36 PST 14h41 PST 1:05
16-11-2014 C750/LMc Clellan-Palomar ()Int'l de San Diego () 11h02 PST 11h18 PST 0:16
16-11-2014 C750/LScottsdale ()Mc Clellan-Palomar () 09h42 MST 09h37 PST 0:55
15-11-2014 C750/LWestchester County ()Scottsdale () 11h24 EST 14h10 MST 4:46
15-11-2014 C750/LSouth Bend Intl ()Westchester County () 07h10 EST 08h31 EST 1:21
14-11-2014 C750/LInt'l Midway de Chicago ()South Bend Intl () 19h03 CST 20h22 EST 0:19
14-11-2014 C750/LInt'l de Los Angeles ()Int'l Midway de Chicago () 12h04 PST 17h01 CST 2:57
14-11-2014 C750/LInt'l de San José ()Santa Monica Muni () 08h28 PST 09h32 PST 1:04
13-11-2014 C750/LInt'l de Philadelphie ()Int'l de San José () 17h55 EST 20h23 PST 5:28
13-11-2014 C750/LBermuda Int'l ()Int'l de Philadelphie () 15h44 AST 16h38 EST 1:54
12-11-2014 C750Richmond Intl ()Bermuda Int'l () 16h33 EST 19h15 AST (?) 0:09
12-11-2014 C750/LRichmond Intl ()Bermuda Int'l () 16h33 EST 19h06 AST 1:33
12-11-2014 C750/LInt'l Newark Liberty ()Richmond Intl () 14h03 EST 14h59 EST 0:56
12-11-2014 C750/LChicago Executive ()Int'l Newark Liberty () 08h33 CST 11h03 EST 1:29
12-11-2014 C750/LInt'l Midway de Chicago ()Chicago Executive () 06h44 CST 07h03 CST 0:19
11-11-2014 C750/LWill Rogers World ()Int'l Midway de Chicago () 16h18 CST 17h37 CST 1:19
11-11-2014 C750/LInt'l de San José ()Will Rogers World () 06h47 PST 11h15 CST 2:28
10-11-2014 C750/LVan Nuys ()Int'l de San José () 13h22 PST 14h10 PST 0:48
10-11-2014 C750/LNashville Intl ()Van Nuys () 00h58 CST 02h41 PST 3:42
09-11-2014 C750/LSalina Rgnl ()Nashville Intl () 22h33 CST 23h46 CST 1:13
Les membres inscrits (l'inscription est gratuite et facile!) voient 4 months d'historique. S'inscrire